sensor_id;sensor_type;location;lat;lon;timestamp;P1;durP1;ratioP1;P2;durP2;ratioP2
20067;SDS011;10194;50.824;7.134;2023-01-25T00:00:19;293.63;;;269.63;;
20067;SDS011;10194;50.824;7.134;2023-01-25T00:02:45;291.97;;;268.20;;
20067;SDS011;10194;50.824;7.134;2023-01-25T00:05:10;291.73;;;268.33;;
20067;SDS011;10194;50.824;7.134;2023-01-25T00:07:36;294.10;;;271.00;;
20067;SDS011;10194;50.824;7.134;2023-01-25T00:10:02;297.37;;;272.70;;
20067;SDS011;10194;50.824;7.134;2023-01-25T00:12:28;292.50;;;268.73;;
20067;SDS011;10194;50.824;7.134;2023-01-25T00:14:54;292.43;;;268.77;;
20067;SDS011;10194;50.824;7.134;2023-01-25T00:17:20;295.43;;;271.27;;
20067;SDS011;10194;50.824;7.134;2023-01-25T00:19:46;294.77;;;271.30;;
20067;SDS011;10194;50.824;7.134;2023-01-25T00:22:11;296.07;;;272.60;;
20067;SDS011;10194;50.824;7.134;2023-01-25T00:24:37;290.13;;;266.80;;
20067;SDS011;10194;50.824;7.134;2023-01-25T00:27:03;289.83;;;266.67;;
20067;SDS011;10194;50.824;7.134;2023-01-25T00:29:29;284.93;;;262.07;;
20067;SDS011;10194;50.824;7.134;2023-01-25T00:39:53;289.10;;;266.00;;
20067;SDS011;10194;50.824;7.134;2023-01-25T00:42:19;294.53;;;271.10;;
20067;SDS011;10194;50.824;7.134;2023-01-25T00:44:45;290.33;;;266.77;;
20067;SDS011;10194;50.824;7.134;2023-01-25T00:47:12;292.97;;;269.53;;
20067;SDS011;10194;50.824;7.134;2023-01-25T00:49:39;291.17;;;267.53;;
20067;SDS011;10194;50.824;7.134;2023-01-25T00:52:06;294.70;;;270.67;;
20067;SDS011;10194;50.824;7.134;2023-01-25T00:54:33;292.70;;;269.20;;
20067;SDS011;10194;50.824;7.134;2023-01-25T00:56:58;294.87;;;271.60;;
20067;SDS011;10194;50.824;7.134;2023-01-25T00:59:24;293.97;;;270.17;;
20067;SDS011;10194;50.824;7.134;2023-01-25T01:01:50;290.10;;;266.67;;
20067;SDS011;10194;50.824;7.134;2023-01-25T01:04:18;291.40;;;268.23;;
20067;SDS011;10194;50.824;7.134;2023-01-25T01:06:44;286.77;;;263.47;;
20067;SDS011;10194;50.824;7.134;2023-01-25T01:09:11;285.70;;;262.27;;
20067;SDS011;10194;50.824;7.134;2023-01-25T01:11:41;290.57;;;266.43;;
20067;SDS011;10194;50.824;7.134;2023-01-25T01:14:07;287.43;;;264.10;;
20067;SDS011;10194;50.824;7.134;2023-01-25T01:16:33;294.43;;;270.80;;
20067;SDS011;10194;50.824;7.134;2023-01-25T01:18:59;290.17;;;266.77;;
20067;SDS011;10194;50.824;7.134;2023-01-25T01:21:25;294.83;;;271.20;;
20067;SDS011;10194;50.824;7.134;2023-01-25T01:23:52;292.77;;;269.10;;
20067;SDS011;10194;50.824;7.134;2023-01-25T01:26:19;289.37;;;265.50;;
20067;SDS011;10194;50.824;7.134;2023-01-25T01:28:45;295.83;;;272.00;;
20067;SDS011;10194;50.824;7.134;2023-01-25T01:31:13;294.87;;;271.17;;
20067;SDS011;10194;50.824;7.134;2023-01-25T01:33:41;294.27;;;270.63;;
20067;SDS011;10194;50.824;7.134;2023-01-25T01:36:11;296.23;;;272.47;;
20067;SDS011;10194;50.824;7.134;2023-01-25T01:38:40;296.67;;;272.47;;
20067;SDS011;10194;50.824;7.134;2023-01-25T01:41:06;297.67;;;273.87;;
20067;SDS011;10194;50.824;7.134;2023-01-25T01:43:33;297.07;;;272.70;;
20067;SDS011;10194;50.824;7.134;2023-01-25T01:46:00;295.23;;;271.20;;
20067;SDS011;10194;50.824;7.134;2023-01-25T01:48:45;293.70;;;270.20;;
20067;SDS011;10194;50.824;7.134;2023-01-25T01:51:21;288.43;;;264.93;;
20067;SDS011;10194;50.824;7.134;2023-01-25T01:53:59;290.67;;;266.87;;
20067;SDS011;10194;50.824;7.134;2023-01-25T01:56:54;291.33;;;267.53;;
20067;SDS011;10194;50.824;7.134;2023-01-25T01:59:27;291.40;;;267.37;;
20067;SDS011;10194;50.824;7.134;2023-01-25T02:02:01;289.63;;;266.20;;
20067;SDS011;10194;50.824;7.134;2023-01-25T02:04:27;291.10;;;267.00;;
20067;SDS011;10194;50.824;7.134;2023-01-25T02:06:59;294.83;;;270.43;;
20067;SDS011;10194;50.824;7.134;2023-01-25T02:09:45;288.67;;;264.23;;
20067;SDS011;10194;50.824;7.134;2023-01-25T02:12:13;286.53;;;262.87;;
20067;SDS011;10194;50.824;7.134;2023-01-25T02:14:42;279.90;;;256.50;;
20067;SDS011;10194;50.824;7.134;2023-01-25T02:17:13;284.57;;;260.87;;
20067;SDS011;10194;50.824;7.134;2023-01-25T02:20:00;286.50;;;262.33;;
20067;SDS011;10194;50.824;7.134;2023-01-25T02:22:40;284.40;;;260.00;;
20067;SDS011;10194;50.824;7.134;2023-01-25T02:25:30;282.60;;;258.83;;
20067;SDS011;10194;50.824;7.134;2023-01-25T02:27:58;284.60;;;260.40;;
20067;SDS011;10194;50.824;7.134;2023-01-25T02:30:37;289.73;;;265.90;;
20067;SDS011;10194;50.824;7.134;2023-01-25T02:33:03;285.23;;;261.77;;
20067;SDS011;10194;50.824;7.134;2023-01-25T02:35:36;285.27;;;261.40;;
20067;SDS011;10194;50.824;7.134;2023-01-25T02:38:08;288.17;;;264.87;;
20067;SDS011;10194;50.824;7.134;2023-01-25T02:43:28;286.33;;;262.70;;
20067;SDS011;10194;50.824;7.134;2023-01-25T02:45:58;281.47;;;257.90;;
20067;SDS011;10194;50.824;7.134;2023-01-25T02:48:30;285.37;;;262.00;;
20067;SDS011;10194;50.824;7.134;2023-01-25T02:50:55;277.87;;;255.10;;
20067;SDS011;10194;50.824;7.134;2023-01-25T02:53:21;281.23;;;258.17;;
20067;SDS011;10194;50.824;7.134;2023-01-25T02:55:47;282.40;;;259.37;;
20067;SDS011;10194;50.824;7.134;2023-01-25T02:58:13;282.63;;;259.93;;
20067;SDS011;10194;50.824;7.134;2023-01-25T03:00:38;282.47;;;259.67;;
20067;SDS011;10194;50.824;7.134;2023-01-25T03:03:04;285.20;;;261.23;;
20067;SDS011;10194;50.824;7.134;2023-01-25T03:05:30;281.20;;;258.23;;
20067;SDS011;10194;50.824;7.134;2023-01-25T03:07:56;287.20;;;263.63;;
20067;SDS011;10194;50.824;7.134;2023-01-25T03:10:21;279.20;;;256.30;;
20067;SDS011;10194;50.824;7.134;2023-01-25T03:12:47;281.20;;;258.47;;
20067;SDS011;10194;50.824;7.134;2023-01-25T03:15:13;283.97;;;260.87;;
20067;SDS011;10194;50.824;7.134;2023-01-25T03:17:38;281.70;;;259.00;;
20067;SDS011;10194;50.824;7.134;2023-01-25T03:20:04;287.77;;;264.30;;
20067;SDS011;10194;50.824;7.134;2023-01-25T03:22:31;281.13;;;258.03;;
20067;SDS011;10194;50.824;7.134;2023-01-25T03:24:56;282.83;;;260.00;;
20067;SDS011;10194;50.824;7.134;2023-01-25T03:27:22;286.80;;;263.70;;
20067;SDS011;10194;50.824;7.134;2023-01-25T03:29:48;285.63;;;262.63;;
20067;SDS011;10194;50.824;7.134;2023-01-25T03:32:14;282.57;;;259.50;;
20067;SDS011;10194;50.824;7.134;2023-01-25T03:34:39;289.00;;;265.47;;
20067;SDS011;10194;50.824;7.134;2023-01-25T03:37:05;284.87;;;261.53;;
20067;SDS011;10194;50.824;7.134;2023-01-25T03:39:31;290.87;;;267.03;;
20067;SDS011;10194;50.824;7.134;2023-01-25T03:41:57;287.03;;;263.83;;
20067;SDS011;10194;50.824;7.134;2023-01-25T03:44:22;293.30;;;268.83;;
20067;SDS011;10194;50.824;7.134;2023-01-25T03:46:48;292.90;;;268.77;;
20067;SDS011;10194;50.824;7.134;2023-01-25T03:49:14;289.93;;;266.20;;
20067;SDS011;10194;50.824;7.134;2023-01-25T03:51:42;289.13;;;265.40;;
20067;SDS011;10194;50.824;7.134;2023-01-25T03:54:08;292.40;;;268.67;;
20067;SDS011;10194;50.824;7.134;2023-01-25T03:56:34;288.37;;;264.70;;
20067;SDS011;10194;50.824;7.134;2023-01-25T03:59:02;291.63;;;267.90;;
20067;SDS011;10194;50.824;7.134;2023-01-25T04:01:27;291.90;;;268.50;;
20067;SDS011;10194;50.824;7.134;2023-01-25T04:03:53;285.53;;;261.67;;
20067;SDS011;10194;50.824;7.134;2023-01-25T04:06:19;285.00;;;261.33;;
20067;SDS011;10194;50.824;7.134;2023-01-25T04:08:45;282.20;;;258.97;;
20067;SDS011;10194;50.824;7.134;2023-01-25T04:11:11;284.47;;;260.50;;
20067;SDS011;10194;50.824;7.134;2023-01-25T04:13:37;284.90;;;261.30;;
20067;SDS011;10194;50.824;7.134;2023-01-25T04:16:03;283.93;;;260.33;;
20067;SDS011;10194;50.824;7.134;2023-01-25T04:18:31;282.70;;;259.67;;
20067;SDS011;10194;50.824;7.134;2023-01-25T04:20:57;287.63;;;263.83;;
20067;SDS011;10194;50.824;7.134;2023-01-25T04:23:23;287.57;;;264.33;;
20067;SDS011;10194;50.824;7.134;2023-01-25T04:25:54;284.30;;;261.30;;
20067;SDS011;10194;50.824;7.134;2023-01-25T04:28:22;281.37;;;258.33;;
20067;SDS011;10194;50.824;7.134;2023-01-25T04:30:49;284.90;;;261.70;;
20067;SDS011;10194;50.824;7.134;2023-01-25T04:33:14;283.67;;;261.13;;
20067;SDS011;10194;50.824;7.134;2023-01-25T04:35:41;276.90;;;253.87;;
20067;SDS011;10194;50.824;7.134;2023-01-25T04:38:08;278.73;;;255.83;;
20067;SDS011;10194;50.824;7.134;2023-01-25T04:40:34;277.13;;;254.03;;
20067;SDS011;10194;50.824;7.134;2023-01-25T04:43:00;275.93;;;253.33;;
20067;SDS011;10194;50.824;7.134;2023-01-25T04:45:26;275.57;;;252.67;;
20067;SDS011;10194;50.824;7.134;2023-01-25T04:47:55;271.80;;;249.50;;
20067;SDS011;10194;50.824;7.134;2023-01-25T04:50:23;279.43;;;256.40;;
20067;SDS011;10194;50.824;7.134;2023-01-25T04:52:49;279.47;;;256.13;;
20067;SDS011;10194;50.824;7.134;2023-01-25T04:55:15;274.00;;;251.00;;
20067;SDS011;10194;50.824;7.134;2023-01-25T04:57:41;278.00;;;255.03;;
20067;SDS011;10194;50.824;7.134;2023-01-25T05:00:09;288.07;;;263.57;;
20067;SDS011;10194;50.824;7.134;2023-01-25T05:02:36;282.83;;;259.23;;
20067;SDS011;10194;50.824;7.134;2023-01-25T05:05:03;282.70;;;258.90;;
20067;SDS011;10194;50.824;7.134;2023-01-25T05:07:29;283.73;;;260.30;;
20067;SDS011;10194;50.824;7.134;2023-01-25T05:09:55;289.57;;;266.07;;
20067;SDS011;10194;50.824;7.134;2023-01-25T05:12:21;284.73;;;261.20;;
20067;SDS011;10194;50.824;7.134;2023-01-25T05:14:47;285.30;;;262.20;;
20067;SDS011;10194;50.824;7.134;2023-01-25T05:17:12;287.17;;;263.87;;
20067;SDS011;10194;50.824;7.134;2023-01-25T05:19:38;285.27;;;261.83;;
20067;SDS011;10194;50.824;7.134;2023-01-25T05:22:04;293.57;;;269.17;;
20067;SDS011;10194;50.824;7.134;2023-01-25T05:24:32;288.67;;;264.90;;
20067;SDS011;10194;50.824;7.134;2023-01-25T05:27:00;289.47;;;265.67;;
20067;SDS011;10194;50.824;7.134;2023-01-25T05:32:09;286.23;;;262.70;;
20067;SDS011;10194;50.824;7.134;2023-01-25T05:34:43;291.33;;;267.13;;
20067;SDS011;10194;50.824;7.134;2023-01-25T05:37:11;289.87;;;265.97;;
20067;SDS011;10194;50.824;7.134;2023-01-25T05:39:39;285.13;;;261.43;;
20067;SDS011;10194;50.824;7.134;2023-01-25T05:42:09;289.67;;;265.90;;
20067;SDS011;10194;50.824;7.134;2023-01-25T05:44:41;287.40;;;263.70;;
20067;SDS011;10194;50.824;7.134;2023-01-25T05:47:14;289.47;;;265.67;;
20067;SDS011;10194;50.824;7.134;2023-01-25T05:49:41;289.33;;;265.53;;
20067;SDS011;10194;50.824;7.134;2023-01-25T05:52:14;291.83;;;267.57;;
20067;SDS011;10194;50.824;7.134;2023-01-25T05:54:40;288.90;;;264.77;;
20067;SDS011;10194;50.824;7.134;2023-01-25T05:57:06;284.63;;;260.97;;
20067;SDS011;10194;50.824;7.134;2023-01-25T05:59:32;289.43;;;265.20;;
20067;SDS011;10194;50.824;7.134;2023-01-25T06:01:58;288.90;;;265.53;;
20067;SDS011;10194;50.824;7.134;2023-01-25T06:04:24;291.33;;;267.20;;
20067;SDS011;10194;50.824;7.134;2023-01-25T06:06:50;289.60;;;266.03;;
20067;SDS011;10194;50.824;7.134;2023-01-25T06:09:15;290.93;;;267.17;;
20067;SDS011;10194;50.824;7.134;2023-01-25T06:11:41;288.77;;;264.93;;
20067;SDS011;10194;50.824;7.134;2023-01-25T06:14:09;287.10;;;263.73;;
20067;SDS011;10194;50.824;7.134;2023-01-25T06:16:34;289.30;;;265.87;;
20067;SDS011;10194;50.824;7.134;2023-01-25T06:19:00;288.83;;;265.10;;
20067;SDS011;10194;50.824;7.134;2023-01-25T06:21:29;289.53;;;265.53;;
20067;SDS011;10194;50.824;7.134;2023-01-25T06:23:55;291.27;;;267.50;;
20067;SDS011;10194;50.824;7.134;2023-01-25T06:26:20;287.30;;;263.27;;
20067;SDS011;10194;50.824;7.134;2023-01-25T06:28:46;291.27;;;267.37;;
20067;SDS011;10194;50.824;7.134;2023-01-25T06:31:13;285.40;;;261.73;;
20067;SDS011;10194;50.824;7.134;2023-01-25T06:33:42;288.87;;;265.07;;
20067;SDS011;10194;50.824;7.134;2023-01-25T06:36:13;290.37;;;266.57;;
20067;SDS011;10194;50.824;7.134;2023-01-25T06:38:42;293.37;;;269.27;;
20067;SDS011;10194;50.824;7.134;2023-01-25T06:41:11;292.53;;;268.60;;
20067;SDS011;10194;50.824;7.134;2023-01-25T06:43:37;288.53;;;265.30;;
20067;SDS011;10194;50.824;7.134;2023-01-25T06:46:04;290.83;;;267.07;;
20067;SDS011;10194;50.824;7.134;2023-01-25T06:48:32;293.07;;;269.10;;
20067;SDS011;10194;50.824;7.134;2023-01-25T06:51:00;289.17;;;265.20;;
20067;SDS011;10194;50.824;7.134;2023-01-25T06:53:29;289.23;;;265.33;;
20067;SDS011;10194;50.824;7.134;2023-01-25T06:56:05;286.60;;;262.90;;
20067;SDS011;10194;50.824;7.134;2023-01-25T06:58:34;289.87;;;266.00;;
20067;SDS011;10194;50.824;7.134;2023-01-25T07:01:01;291.77;;;267.60;;
20067;SDS011;10194;50.824;7.134;2023-01-25T07:03:52;287.53;;;263.57;;
20067;SDS011;10194;50.824;7.134;2023-01-25T07:06:20;289.47;;;265.27;;
20067;SDS011;10194;50.824;7.134;2023-01-25T07:08:46;287.17;;;263.47;;
20067;SDS011;10194;50.824;7.134;2023-01-25T07:11:12;291.43;;;267.60;;
20067;SDS011;10194;50.824;7.134;2023-01-25T07:13:40;292.47;;;268.60;;
20067;SDS011;10194;50.824;7.134;2023-01-25T07:16:09;295.47;;;271.53;;
20067;SDS011;10194;50.824;7.134;2023-01-25T07:18:38;298.13;;;273.97;;
20067;SDS011;10194;50.824;7.134;2023-01-25T07:21:06;295.47;;;271.23;;
20067;SDS011;10194;50.824;7.134;2023-01-25T07:23:36;295.37;;;271.33;;
20067;SDS011;10194;50.824;7.134;2023-01-25T07:26:03;295.00;;;271.10;;
20067;SDS011;10194;50.824;7.134;2023-01-25T07:28:30;300.43;;;276.17;;
20067;SDS011;10194;50.824;7.134;2023-01-25T07:31:03;299.70;;;275.27;;
20067;SDS011;10194;50.824;7.134;2023-01-25T07:33:30;294.47;;;270.67;;
20067;SDS011;10194;50.824;7.134;2023-01-25T07:36:01;298.63;;;274.30;;
20067;SDS011;10194;50.824;7.134;2023-01-25T07:38:29;293.67;;;269.80;;
20067;SDS011;10194;50.824;7.134;2023-01-25T07:40:55;293.20;;;269.00;;
20067;SDS011;10194;50.824;7.134;2023-01-25T07:43:21;289.93;;;266.40;;
20067;SDS011;10194;50.824;7.134;2023-01-25T07:45:47;292.50;;;268.17;;
20067;SDS011;10194;50.824;7.134;2023-01-25T07:48:13;289.10;;;264.77;;
20067;SDS011;10194;50.824;7.134;2023-01-25T07:50:41;291.07;;;266.83;;
20067;SDS011;10194;50.824;7.134;2023-01-25T07:53:10;290.90;;;266.77;;
20067;SDS011;10194;50.824;7.134;2023-01-25T07:55:37;288.00;;;263.77;;
20067;SDS011;10194;50.824;7.134;2023-01-25T07:58:03;288.73;;;265.00;;
20067;SDS011;10194;50.824;7.134;2023-01-25T08:00:29;285.97;;;262.27;;
20067;SDS011;10194;50.824;7.134;2023-01-25T08:02:55;287.30;;;263.07;;
20067;SDS011;10194;50.824;7.134;2023-01-25T08:05:20;288.60;;;264.47;;
20067;SDS011;10194;50.824;7.134;2023-01-25T08:07:46;286.23;;;262.70;;
20067;SDS011;10194;50.824;7.134;2023-01-25T08:10:12;293.43;;;268.47;;
20067;SDS011;10194;50.824;7.134;2023-01-25T08:12:39;287.60;;;263.47;;
20067;SDS011;10194;50.824;7.134;2023-01-25T08:15:10;286.93;;;262.87;;
20067;SDS011;10194;50.824;7.134;2023-01-25T08:17:39;287.33;;;263.23;;
20067;SDS011;10194;50.824;7.134;2023-01-25T08:20:05;290.63;;;265.57;;
20067;SDS011;10194;50.824;7.134;2023-01-25T08:22:32;287.50;;;263.33;;
20067;SDS011;10194;50.824;7.134;2023-01-25T08:24:57;286.03;;;261.80;;
20067;SDS011;10194;50.824;7.134;2023-01-25T08:27:26;283.40;;;259.90;;
20067;SDS011;10194;50.824;7.134;2023-01-25T08:29:52;285.67;;;261.67;;
20067;SDS011;10194;50.824;7.134;2023-01-25T08:32:19;280.87;;;257.20;;
20067;SDS011;10194;50.824;7.134;2023-01-25T08:34:44;282.60;;;258.77;;
20067;SDS011;10194;50.824;7.134;2023-01-25T08:37:11;284.43;;;260.03;;
20067;SDS011;10194;50.824;7.134;2023-01-25T08:39:36;281.90;;;257.37;;
20067;SDS011;10194;50.824;7.134;2023-01-25T08:42:02;281.33;;;257.40;;
20067;SDS011;10194;50.824;7.134;2023-01-25T08:44:28;283.00;;;258.57;;
20067;SDS011;10194;50.824;7.134;2023-01-25T08:46:54;281.73;;;258.10;;
20067;SDS011;10194;50.824;7.134;2023-01-25T08:49:19;280.30;;;256.50;;
20067;SDS011;10194;50.824;7.134;2023-01-25T08:51:45;281.03;;;257.27;;
20067;SDS011;10194;50.824;7.134;2023-01-25T08:54:12;283.03;;;258.40;;
20067;SDS011;10194;50.824;7.134;2023-01-25T08:56:38;280.67;;;256.97;;
20067;SDS011;10194;50.824;7.134;2023-01-25T08:59:05;278.53;;;255.17;;
20067;SDS011;10194;50.824;7.134;2023-01-25T09:01:31;285.80;;;261.30;;
20067;SDS011;10194;50.824;7.134;2023-01-25T09:03:57;282.70;;;258.83;;
20067;SDS011;10194;50.824;7.134;2023-01-25T09:06:23;284.30;;;260.37;;
20067;SDS011;10194;50.824;7.134;2023-01-25T09:08:49;280.50;;;256.40;;
20067;SDS011;10194;50.824;7.134;2023-01-25T09:11:16;282.67;;;258.60;;
20067;SDS011;10194;50.824;7.134;2023-01-25T09:13:44;286.87;;;263.13;;
20067;SDS011;10194;50.824;7.134;2023-01-25T09:16:13;286.67;;;262.47;;
20067;SDS011;10194;50.824;7.134;2023-01-25T09:18:44;286.20;;;261.57;;
20067;SDS011;10194;50.824;7.134;2023-01-25T09:21:13;282.07;;;257.57;;
20067;SDS011;10194;50.824;7.134;2023-01-25T09:23:41;277.87;;;253.77;;
20067;SDS011;10194;50.824;7.134;2023-01-25T09:26:12;283.27;;;259.47;;
20067;SDS011;10194;50.824;7.134;2023-01-25T09:28:39;284.63;;;260.47;;
20067;SDS011;10194;50.824;7.134;2023-01-25T09:31:08;285.10;;;260.87;;
20067;SDS011;10194;50.824;7.134;2023-01-25T09:33:38;288.40;;;264.07;;
20067;SDS011;10194;50.824;7.134;2023-01-25T09:36:06;286.37;;;262.07;;
20067;SDS011;10194;50.824;7.134;2023-01-25T09:38:33;286.07;;;261.17;;
20067;SDS011;10194;50.824;7.134;2023-01-25T09:41:03;280.93;;;257.23;;
20067;SDS011;10194;50.824;7.134;2023-01-25T09:46:54;284.13;;;259.83;;
20067;SDS011;10194;50.824;7.134;2023-01-25T09:55:35;285.17;;;261.00;;
20067;SDS011;10194;50.824;7.134;2023-01-25T09:58:02;290.17;;;265.47;;
20067;SDS011;10194;50.824;7.134;2023-01-25T10:00:48;294.93;;;270.27;;
20067;SDS011;10194;50.824;7.134;2023-01-25T10:05:58;290.70;;;266.27;;
20067;SDS011;10194;50.824;7.134;2023-01-25T10:08:48;292.03;;;267.80;;
20067;SDS011;10194;50.824;7.134;2023-01-25T10:12:23;293.60;;;269.00;;
20067;SDS011;10194;50.824;7.134;2023-01-25T10:14:50;295.83;;;271.03;;
20067;SDS011;10194;50.824;7.134;2023-01-25T10:22:53;297.13;;;272.43;;
20067;SDS011;10194;50.824;7.134;2023-01-25T10:31:05;294.47;;;269.77;;
20067;SDS011;10194;50.824;7.134;2023-01-25T10:33:42;299.40;;;274.90;;
20067;SDS011;10194;50.824;7.134;2023-01-25T10:36:14;299.47;;;274.70;;
20067;SDS011;10194;50.824;7.134;2023-01-25T10:38:44;298.57;;;273.47;;
20067;SDS011;10194;50.824;7.134;2023-01-25T10:43:52;300.67;;;275.80;;
20067;SDS011;10194;50.824;7.134;2023-01-25T10:46:37;300.63;;;275.63;;
20067;SDS011;10194;50.824;7.134;2023-01-25T10:49:16;300.30;;;274.87;;
20067;SDS011;10194;50.824;7.134;2023-01-25T10:52:21;301.27;;;276.10;;
20067;SDS011;10194;50.824;7.134;2023-01-25T10:57:49;299.37;;;274.57;;
20067;SDS011;10194;50.824;7.134;2023-01-25T11:00:23;303.87;;;278.40;;
20067;SDS011;10194;50.824;7.134;2023-01-25T11:03:02;301.33;;;276.37;;
20067;SDS011;10194;50.824;7.134;2023-01-25T11:05:30;300.90;;;275.97;;
20067;SDS011;10194;50.824;7.134;2023-01-25T11:08:14;300.03;;;274.83;;
20067;SDS011;10194;50.824;7.134;2023-01-25T11:10:57;298.53;;;273.73;;
20067;SDS011;10194;50.824;7.134;2023-01-25T11:13:25;300.57;;;275.50;;
20067;SDS011;10194;50.824;7.134;2023-01-25T11:15:53;298.17;;;272.73;;
20067;SDS011;10194;50.824;7.134;2023-01-25T11:18:26;298.53;;;273.47;;
20067;SDS011;10194;50.824;7.134;2023-01-25T11:23:30;292.33;;;267.33;;
20067;SDS011;10194;50.824;7.134;2023-01-25T11:26:10;294.27;;;268.87;;
20067;SDS011;10194;50.824;7.134;2023-01-25T11:28:36;289.37;;;263.97;;
20067;SDS011;10194;50.824;7.134;2023-01-25T11:31:02;292.03;;;266.50;;
20067;SDS011;10194;50.824;7.134;2023-01-25T11:33:27;295.53;;;270.03;;
20067;SDS011;10194;50.824;7.134;2023-01-25T11:38:24;287.73;;;262.57;;
20067;SDS011;10194;50.824;7.134;2023-01-25T11:50:01;289.23;;;264.00;;
20067;SDS011;10194;50.824;7.134;2023-01-25T12:01:26;291.87;;;267.37;;
20067;SDS011;10194;50.824;7.134;2023-01-25T12:13:17;294.13;;;268.80;;
20067;SDS011;10194;50.824;7.134;2023-01-25T12:30:50;298.00;;;272.50;;
20067;SDS011;10194;50.824;7.134;2023-01-25T12:36:17;298.40;;;273.20;;
20067;SDS011;10194;50.824;7.134;2023-01-25T12:41:41;298.70;;;273.63;;
20067;SDS011;10194;50.824;7.134;2023-01-25T12:44:28;299.53;;;274.47;;
20067;SDS011;10194;50.824;7.134;2023-01-25T12:47:13;299.40;;;274.23;;
20067;SDS011;10194;50.824;7.134;2023-01-25T12:50:14;299.10;;;273.33;;
20067;SDS011;10194;50.824;7.134;2023-01-25T12:55:48;297.77;;;272.07;;
20067;SDS011;10194;50.824;7.134;2023-01-25T13:04:08;297.27;;;271.83;;
20067;SDS011;10194;50.824;7.134;2023-01-25T13:07:06;297.90;;;273.17;;
20067;SDS011;10194;50.824;7.134;2023-01-25T13:10:20;297.97;;;272.47;;
20067;SDS011;10194;50.824;7.134;2023-01-25T13:13:01;295.20;;;270.07;;
20067;SDS011;10194;50.824;7.134;2023-01-25T13:15:44;299.20;;;273.90;;
20067;SDS011;10194;50.824;7.134;2023-01-25T13:20:56;294.97;;;269.97;;
20067;SDS011;10194;50.824;7.134;2023-01-25T13:28:45;294.27;;;269.23;;
20067;SDS011;10194;50.824;7.134;2023-01-25T13:37:01;299.47;;;274.13;;
20067;SDS011;10194;50.824;7.134;2023-01-25T13:39:41;298.50;;;273.33;;
20067;SDS011;10194;50.824;7.134;2023-01-25T13:44:48;295.83;;;270.97;;
20067;SDS011;10194;50.824;7.134;2023-01-25T13:47:20;300.03;;;273.90;;
20067;SDS011;10194;50.824;7.134;2023-01-25T13:50:01;293.00;;;268.30;;
20067;SDS011;10194;50.824;7.134;2023-01-25T13:53:01;295.00;;;269.60;;
20067;SDS011;10194;50.824;7.134;2023-01-25T13:55:49;299.93;;;273.90;;
20067;SDS011;10194;50.824;7.134;2023-01-25T14:00:59;296.97;;;271.50;;
20067;SDS011;10194;50.824;7.134;2023-01-25T14:03:33;301.83;;;275.77;;
20067;SDS011;10194;50.824;7.134;2023-01-25T14:06:13;297.10;;;271.43;;
20067;SDS011;10194;50.824;7.134;2023-01-25T14:08:43;298.80;;;273.47;;
20067;SDS011;10194;50.824;7.134;2023-01-25T14:11:16;297.10;;;271.60;;
20067;SDS011;10194;50.824;7.134;2023-01-25T14:13:56;299.60;;;273.80;;
20067;SDS011;10194;50.824;7.134;2023-01-25T14:16:28;300.57;;;274.63;;
20067;SDS011;10194;50.824;7.134;2023-01-25T14:27:53;296.13;;;271.00;;
20067;SDS011;10194;50.824;7.134;2023-01-25T14:30:24;293.90;;;269.03;;
20067;SDS011;10194;50.824;7.134;2023-01-25T14:32:53;294.00;;;268.87;;
20067;SDS011;10194;50.824;7.134;2023-01-25T14:38:02;293.93;;;268.63;;
20067;SDS011;10194;50.824;7.134;2023-01-25T14:40:44;290.83;;;265.80;;
20067;SDS011;10194;50.824;7.134;2023-01-25T14:43:11;299.63;;;273.40;;
20067;SDS011;10194;50.824;7.134;2023-01-25T14:45:39;295.33;;;269.70;;
20067;SDS011;10194;50.824;7.134;2023-01-25T14:48:30;295.10;;;269.60;;
20067;SDS011;10194;50.824;7.134;2023-01-25T14:51:42;294.63;;;268.83;;
20067;SDS011;10194;50.824;7.134;2023-01-25T14:59:19;294.60;;;267.93;;
20067;SDS011;10194;50.824;7.134;2023-01-25T15:01:55;298.17;;;271.10;;
20067;SDS011;10194;50.824;7.134;2023-01-25T15:04:29;291.73;;;266.00;;
20067;SDS011;10194;50.824;7.134;2023-01-25T15:06:55;294.27;;;268.63;;
20067;SDS011;10194;50.824;7.134;2023-01-25T15:09:40;296.77;;;270.73;;
20067;SDS011;10194;50.824;7.134;2023-01-25T15:14:53;293.03;;;266.87;;
20067;SDS011;10194;50.824;7.134;2023-01-25T15:17:36;300.10;;;273.43;;
20067;SDS011;10194;50.824;7.134;2023-01-25T15:23:23;295.77;;;270.00;;
20067;SDS011;10194;50.824;7.134;2023-01-25T15:25:52;296.63;;;270.93;;
20067;SDS011;10194;50.824;7.134;2023-01-25T15:28:19;296.03;;;270.10;;
20067;SDS011;10194;50.824;7.134;2023-01-25T15:30:46;295.17;;;269.23;;
20067;SDS011;10194;50.824;7.134;2023-01-25T15:33:22;298.00;;;271.67;;
20067;SDS011;10194;50.824;7.134;2023-01-25T15:35:50;296.60;;;270.13;;
20067;SDS011;10194;50.824;7.134;2023-01-25T15:38:18;293.60;;;267.80;;
20067;SDS011;10194;50.824;7.134;2023-01-25T15:40:45;290.73;;;264.93;;
20067;SDS011;10194;50.824;7.134;2023-01-25T15:43:12;289.70;;;264.00;;
20067;SDS011;10194;50.824;7.134;2023-01-25T15:45:47;286.33;;;261.37;;
20067;SDS011;10194;50.824;7.134;2023-01-25T15:48:16;291.20;;;265.33;;
20067;SDS011;10194;50.824;7.134;2023-01-25T15:50:47;288.23;;;262.77;;
20067;SDS011;10194;50.824;7.134;2023-01-25T15:53:14;288.70;;;263.70;;
20067;SDS011;10194;50.824;7.134;2023-01-25T15:55:42;291.37;;;265.70;;
20067;SDS011;10194;50.824;7.134;2023-01-25T15:58:12;287.47;;;261.90;;
20067;SDS011;10194;50.824;7.134;2023-01-25T16:00:48;284.03;;;258.67;;
20067;SDS011;10194;50.824;7.134;2023-01-25T16:03:14;289.37;;;263.43;;
20067;SDS011;10194;50.824;7.134;2023-01-25T16:05:43;290.63;;;265.17;;
20067;SDS011;10194;50.824;7.134;2023-01-25T16:08:14;288.10;;;262.43;;
20067;SDS011;10194;50.824;7.134;2023-01-25T16:10:42;292.83;;;266.87;;
20067;SDS011;10194;50.824;7.134;2023-01-25T16:13:08;288.50;;;262.93;;
20067;SDS011;10194;50.824;7.134;2023-01-25T16:15:35;293.93;;;267.77;;
20067;SDS011;10194;50.824;7.134;2023-01-25T16:18:02;287.80;;;262.63;;
20067;SDS011;10194;50.824;7.134;2023-01-25T16:20:28;291.97;;;266.00;;
20067;SDS011;10194;50.824;7.134;2023-01-25T16:22:54;296.00;;;270.00;;
20067;SDS011;10194;50.824;7.134;2023-01-25T16:25:20;292.63;;;266.57;;
20067;SDS011;10194;50.824;7.134;2023-01-25T16:27:45;299.63;;;272.77;;
20067;SDS011;10194;50.824;7.134;2023-01-25T16:30:22;294.27;;;268.23;;
20067;SDS011;10194;50.824;7.134;2023-01-25T16:32:55;291.50;;;265.60;;
20067;SDS011;10194;50.824;7.134;2023-01-25T16:35:21;295.67;;;268.93;;
20067;SDS011;10194;50.824;7.134;2023-01-25T16:37:46;291.83;;;265.33;;